< < Back
Terminal Aerodrome Forecast


Current Version              Previous Versions:   1  2  3  4  5  6  7  8  9  

Terminal Aerodrome Forecast

451
FTUS44 KBMX 051218 AAA
TAFANB
TAF AMD
KANB 051218Z 0512/0612 22003KT P6SM VCSH SCT015 BKN040
      TEMPO 0512/0515 BKN009
     FM051800 24008KT P6SM BKN050
     FM060000 23005KT P6SM SCT050 OVC250
     FM060900 24002KT P6SM BKN015=

Latest METAR

949
SAUS70 KWBC 060100 RRD
MTRANB
METAR KANB 060053Z AUTO 22006KT 10SM SCT034 OVC046 26/21 A3009 RMK AO2
SLP180 T02610211


USA.gov is the U.S. government's official web portal to all federal, state and local government web resources and services.